createdAt,value
2019-02-24T00:00:49.018Z,98674.39
2019-02-24T00:05:43.655Z,98669.94
2019-02-24T00:10:38.338Z,98664.45
2019-02-24T00:15:32.906Z,98665.98
2019-02-24T00:20:27.503Z,98662.20
2019-02-24T00:25:22.071Z,98658.64
2019-02-24T00:30:16.654Z,98658.62
2019-02-24T00:35:11.221Z,98656.23
2019-02-24T00:40:08.073Z,98650.15
2019-02-24T00:45:02.620Z,98646.18
2019-02-24T00:49:57.210Z,98635.07
2019-02-24T00:54:51.784Z,98639.70
2019-02-24T00:59:46.366Z,98640.13
2019-02-24T01:04:41.024Z,98642.50
2019-02-24T01:09:35.617Z,98646.45
2019-02-24T01:14:30.189Z,98644.30
2019-02-24T01:19:24.773Z,98640.48
2019-02-24T01:24:19.353Z,98635.54
2019-02-24T01:29:14.018Z,98640.98
2019-02-24T01:34:08.587Z,98644.42
2019-02-24T01:39:03.275Z,98631.35
2019-02-24T01:43:57.894Z,98626.81
2019-02-24T01:48:52.491Z,98623.93
2019-02-24T01:53:47.050Z,98611.09
2019-02-24T01:58:41.636Z,98618.58
2019-02-24T02:03:36.240Z,98617.55
2019-02-24T02:08:30.815Z,98611.13
2019-02-24T02:13:25.381Z,98603.50
2019-02-24T02:18:19.969Z,98602.69
2019-02-24T02:23:14.537Z,98599.30
2019-02-24T02:28:09.131Z,98597.91
2019-02-24T02:33:03.705Z,98598.23
2019-02-24T02:37:58.362Z,98587.06
2019-02-24T02:42:52.940Z,98586.25
2019-02-24T02:47:47.509Z,98582.86
2019-02-24T02:52:42.080Z,98584.19
2019-02-24T02:57:36.679Z,98590.98
2019-02-24T03:02:31.254Z,98587.12
2019-02-24T03:07:27.474Z,98579.86
2019-02-24T03:12:22.039Z,98574.00
2019-02-24T03:17:16.638Z,98572.34
2019-02-24T03:22:11.195Z,98575.37
2019-02-24T03:27:05.779Z,98582.20
2019-02-24T03:32:00.367Z,98582.91
2019-02-24T03:36:54.947Z,98592.88
2019-02-24T03:41:49.518Z,98583.36
2019-02-24T03:46:44.125Z,98580.31
2019-02-24T03:51:38.690Z,98589.80
2019-02-24T03:56:33.373Z,98585.70
2019-02-24T04:01:27.941Z,98591.09
2019-02-24T04:06:22.538Z,98589.59
2019-02-24T04:11:17.094Z,98592.73
2019-02-24T04:16:11.687Z,98598.95
2019-02-24T04:21:06.278Z,98608.94
2019-02-24T04:26:00.872Z,98615.68
2019-02-24T04:30:55.433Z,98617.22
2019-02-24T04:35:50.015Z,98608.41
2019-02-24T04:40:44.589Z,98616.27
2019-02-24T04:45:39.156Z,98619.55
2019-02-24T04:50:33.738Z,98622.66
2019-02-24T04:55:28.309Z,98610.91
2019-02-24T05:00:22.892Z,98616.54
2019-02-24T05:05:17.484Z,98612.92
2019-02-24T05:10:12.063Z,98606.58
2019-02-24T05:15:07.495Z,98608.34
2019-02-24T05:20:02.074Z,98603.42
2019-02-24T05:24:56.651Z,98608.13
2019-02-24T05:29:51.233Z,98615.48
2019-02-24T05:34:45.805Z,98615.25
2019-02-24T05:39:40.385Z,98623.13
2019-02-24T05:44:34.966Z,98627.00
2019-02-24T05:49:29.556Z,98626.54
2019-02-24T05:54:24.143Z,98642.84
2019-02-24T05:59:18.707Z,98650.91
2019-02-24T06:04:13.282Z,98654.56
2019-02-24T06:09:09.716Z,98653.28
2019-02-24T06:14:04.317Z,98658.65
2019-02-24T06:18:58.905Z,98669.92
2019-02-24T06:23:53.466Z,98674.95
2019-02-24T06:28:48.055Z,98679.33
2019-02-24T06:33:42.669Z,98677.00
2019-02-24T06:38:37.259Z,98680.34
2019-02-24T06:43:32.071Z,98693.95
2019-02-24T06:48:26.664Z,98691.97
2019-02-24T06:53:21.221Z,98689.13
2019-02-24T06:58:15.887Z,98699.05
2019-02-24T07:03:10.459Z,98708.55
2019-02-24T07:08:05.053Z,98712.56
2019-02-24T07:12:59.637Z,98723.20
2019-02-24T07:17:54.215Z,98712.35
2019-02-24T07:22:48.773Z,98719.27
2019-02-24T07:27:43.350Z,98721.41
2019-02-24T07:32:37.936Z,98725.23
2019-02-24T07:37:32.528Z,98728.10
2019-02-24T07:42:27.148Z,98728.83
2019-02-24T07:47:21.725Z,98731.48
2019-02-24T07:52:16.319Z,98728.14
2019-02-24T07:57:10.900Z,98731.38
2019-02-24T08:02:05.486Z,98741.09
2019-02-24T08:07:00.124Z,98735.41
2019-02-24T08:11:54.706Z,98735.61
2019-02-24T08:16:49.294Z,98738.16
2019-02-24T08:21:43.884Z,98730.17
2019-02-24T08:26:38.471Z,98736.69
2019-02-24T08:31:33.040Z,98738.61
2019-02-24T08:36:27.626Z,98742.59
2019-02-24T08:41:22.195Z,98748.91
2019-02-24T08:46:16.806Z,98757.81
2019-02-24T08:51:11.385Z,98766.16
2019-02-24T08:56:06.072Z,98767.75
2019-02-24T09:01:00.666Z,98779.47
2019-02-24T09:05:55.244Z,98792.03
2019-02-24T09:10:49.834Z,98791.74
2019-02-24T09:15:44.416Z,98786.99
2019-02-24T09:20:38.979Z,98789.70
2019-02-24T09:25:33.566Z,98792.51
2019-02-24T09:30:28.150Z,98786.02
2019-02-24T09:35:22.740Z,98790.66
2019-02-24T09:40:17.324Z,98797.41
2019-02-24T09:45:13.450Z,98791.19
2019-02-24T09:50:10.633Z,98792.27
2019-02-24T09:55:08.221Z,98792.67
2019-02-24T10:00:02.891Z,98796.79
2019-02-24T10:04:57.534Z,98803.72
2019-02-24T10:09:52.119Z,98791.28
2019-02-24T10:14:46.685Z,98787.80
2019-02-24T10:19:41.286Z,98790.22
2019-02-24T10:24:35.860Z,98783.31
2019-02-24T10:29:30.442Z,98790.20
2019-02-24T10:34:25.008Z,98797.98
2019-02-24T10:39:19.606Z,98797.51
2019-02-24T10:44:14.174Z,98785.88
2019-02-24T10:49:08.768Z,98782.39
2019-02-24T10:54:03.413Z,98773.13
2019-02-24T10:58:58.007Z,98754.34
2019-02-24T11:03:52.590Z,98747.59
2019-02-24T11:08:47.191Z,98747.17
2019-02-24T11:13:41.770Z,98742.89
2019-02-24T11:18:36.357Z,98732.36
2019-02-24T11:23:30.919Z,98732.88
2019-02-24T11:28:25.511Z,98717.84
2019-02-24T11:33:20.113Z,98714.41
2019-02-24T11:38:14.771Z,98715.66
2019-02-24T11:43:09.416Z,98704.64
2019-02-24T11:48:04.012Z,98697.97
2019-02-24T11:52:58.628Z,98692.09
2019-02-24T11:57:53.246Z,98685.88
2019-02-24T12:02:47.850Z,98680.64
2019-02-24T12:07:42.476Z,98686.19
2019-02-24T12:12:37.072Z,98680.14
2019-02-24T12:17:31.660Z,98660.48
2019-02-24T12:22:26.269Z,98667.83
2019-02-24T12:27:20.849Z,98661.19
2019-02-24T12:32:15.415Z,98657.23
2019-02-24T12:37:09.996Z,98666.43
2019-02-24T12:42:04.723Z,98652.69
2019-02-24T12:47:00.520Z,98646.65
2019-02-24T12:51:55.484Z,98630.26
2019-02-24T12:56:50.126Z,98630.97
2019-02-24T13:01:44.734Z,98636.52
2019-02-24T13:06:39.314Z,98628.50
2019-02-24T13:11:33.892Z,98622.50
2019-02-24T13:16:28.483Z,98628.58
2019-02-24T13:21:23.049Z,98633.95
2019-02-24T13:26:17.639Z,98632.14
2019-02-24T13:31:12.287Z,98637.23
2019-02-24T13:36:06.879Z,98627.14
2019-02-24T13:41:01.460Z,98629.97
2019-02-24T13:45:56.030Z,98629.45
2019-02-24T13:50:50.633Z,98613.44
2019-02-24T13:55:45.258Z,98616.16
2019-02-24T14:00:39.857Z,98623.09
2019-02-24T14:05:34.466Z,98614.61
2019-02-24T14:10:29.056Z,98610.30
2019-02-24T14:15:23.700Z,98638.19
2019-02-24T14:20:19.494Z,98641.91
2019-02-24T14:25:16.128Z,98646.91
2019-02-24T14:30:18.994Z,98646.17
2019-02-24T14:35:23.104Z,98652.80
2019-02-24T14:40:17.676Z,98658.39
2019-02-24T14:45:22.932Z,98671.34
2019-02-24T14:50:17.535Z,98654.35
2019-02-24T14:55:14.226Z,98664.53
2019-02-24T15:00:23.995Z,98656.70
2019-02-24T15:05:18.631Z,98669.45
2019-02-24T15:10:20.307Z,98673.72
2019-02-24T15:15:21.098Z,98681.92
2019-02-24T15:20:21.200Z,98684.24
2019-02-24T15:25:18.490Z,98679.68
2019-02-24T15:30:35.595Z,98672.64
2019-02-24T15:35:30.387Z,98675.51
2019-02-24T15:40:25.042Z,98683.48
2019-02-24T15:45:19.840Z,98680.07
2019-02-24T15:50:15.339Z,98677.13
2019-02-24T15:55:15.673Z,98669.00
2019-02-24T16:00:25.228Z,98678.44
2019-02-24T16:05:19.797Z,98674.39
2019-02-24T16:10:22.919Z,98675.73
2019-02-24T16:15:26.479Z,98674.92
2019-02-24T16:20:25.440Z,98669.20
2019-02-24T16:25:20.047Z,98669.38
2019-02-24T16:30:16.726Z,98669.22
2019-02-24T16:35:17.614Z,98671.02
2019-02-24T16:40:19.020Z,98667.91
2019-02-24T16:45:16.547Z,98678.34
2019-02-24T16:50:15.206Z,98664.30
2019-02-24T16:55:14.008Z,98671.91
2019-02-24T17:00:20.835Z,98683.02
2019-02-24T17:05:15.821Z,98677.13
2019-02-24T17:10:17.408Z,98687.88
2019-02-24T17:15:13.907Z,98692.05
2019-02-24T17:20:18.551Z,98690.95
2019-02-24T17:25:13.432Z,98696.69
2019-02-24T17:30:14.919Z,98696.06
2019-02-24T17:35:11.211Z,98710.78
2019-02-24T17:40:15.527Z,98714.28
2019-02-24T17:45:13.273Z,98731.45
2019-02-24T17:50:13.574Z,98743.39
2019-02-24T17:55:19.568Z,98743.89
2019-02-24T18:00:27.362Z,98729.19
2019-02-24T18:05:21.952Z,98727.34
2019-02-24T18:10:16.852Z,98717.38
2019-02-24T18:15:13.247Z,98725.05
2019-02-24T18:20:18.314Z,98721.59
2019-02-24T18:25:13.912Z,98720.77
2019-02-24T18:30:27.766Z,98715.19
2019-02-24T18:35:22.345Z,98720.34
2019-02-24T18:40:17.885Z,98719.97
2019-02-24T18:45:16.838Z,98728.27
2019-02-24T18:50:19.853Z,98727.08
2019-02-24T18:55:14.767Z,98729.00
2019-02-24T19:00:16.810Z,98717.12
2019-02-24T19:05:11.475Z,98734.46
2019-02-24T19:10:16.614Z,98733.52
2019-02-24T19:15:18.162Z,98741.55
2019-02-24T19:20:25.245Z,98739.16
2019-02-24T19:25:20.071Z,98751.95
2019-02-24T19:30:23.776Z,98755.45
2019-02-24T19:35:19.853Z,98760.58
2019-02-24T19:40:20.279Z,98760.57
2019-02-24T19:45:17.957Z,98756.33
2019-02-24T19:50:16.651Z,98747.62
2019-02-24T19:55:14.441Z,98756.65
2019-02-24T20:00:22.472Z,98757.11
2019-02-24T20:05:17.207Z,98757.50
2019-02-24T20:10:16.355Z,98751.34
2019-02-24T20:15:16.825Z,98751.00
2019-02-24T20:20:18.808Z,98758.47
2019-02-24T20:25:20.512Z,98759.20
2019-02-24T20:30:30.870Z,98770.09
2019-02-24T20:35:25.434Z,98768.09
2019-02-24T20:40:20.096Z,98764.20
2019-02-24T20:45:23.385Z,98776.58
2019-02-24T20:50:24.406Z,98778.88
2019-02-24T20:55:18.980Z,98781.51
2019-02-24T21:00:21.019Z,98766.76
2019-02-24T21:05:15.586Z,98762.27
2019-02-24T21:10:12.685Z,98767.77
2019-02-24T21:15:11.962Z,98771.09
2019-02-24T21:20:11.187Z,98768.94
2019-02-24T21:25:07.494Z,98777.02
2019-02-24T21:30:02.081Z,98779.94
2019-02-24T21:34:56.691Z,98782.63
2019-02-24T21:39:51.282Z,98779.69
2019-02-24T21:44:45.855Z,98784.39
2019-02-24T21:49:40.502Z,98783.94
2019-02-24T21:54:35.761Z,98773.37
2019-02-24T21:59:36.823Z,98774.83
2019-02-24T22:04:26.645Z,98788.56
2019-02-24T22:09:21.232Z,98786.16
2019-02-24T22:14:15.838Z,98780.98
2019-02-24T22:19:10.433Z,98783.58
2019-02-24T22:24:05.015Z,98776.88
2019-02-24T22:28:59.626Z,98769.97
2019-02-24T22:33:54.208Z,98787.39
2019-02-24T22:38:48.810Z,98780.27
2019-02-24T22:43:43.473Z,98783.35
2019-02-24T22:48:38.138Z,98777.01
2019-02-24T22:53:32.735Z,98775.23
2019-02-24T22:58:27.341Z,98779.55
2019-02-24T23:03:28.356Z,98776.17
2019-02-24T23:08:22.940Z,98778.00
2019-02-24T23:13:17.518Z,98771.76
2019-02-24T23:18:12.096Z,98768.38
2019-02-24T23:23:06.753Z,98759.60
2019-02-24T23:28:01.344Z,98763.61
2019-02-24T23:32:55.946Z,98767.00
2019-02-24T23:37:50.518Z,98753.39
2019-02-24T23:42:45.091Z,98764.67
2019-02-24T23:47:39.864Z,98756.56
2019-02-24T23:52:34.697Z,98755.98
2019-02-24T23:57:29.291Z,98756.13
